Aérodrome :
LOGIN :

S'inscrire | Disclaimer

   EN    FR    IT 

 










Légende :    VFR   VFR Marginal   IFR   IFR Intensif   IFR Très Intensif
Visi : 
Plafond : 
>= 8 km
>= 3000ft
5 à 8 km
1000 à 3000 ft
1500m à 5 km
500 à 1000 ft
800 à 1500m
200 à 500 ft
< 800m
< 200 ft
Symboles :   Orages  Brouillard  Fortes neiges  Fortes précipitations  Vent > 20 kt
SIGMETs :   Divers  Orages  Givrage  Turbulence  Onde Orograph.  Cendres Volcan.







- Altitude de l'aérodrome : 459 ft
- Code IATA : CER
- Voir les cartes d'approche


LFRC - Cherbourg / Maupertus

DERNIER METAR :
  • 221230Z AUTO 19022KT CAVOK 13/07 Q1000 BECMG 21020G30KT

METARs EXPIRÉS :
  • 221200Z AUTO 19021KT CAVOK 13/07 Q1001 BECMG 21020G30KT
  • 221130Z AUTO 19019KT CAVOK 13/07 Q1002 BECMG 21020G30KT
  • 221100Z AUTO 19020KT CAVOK 13/07 Q1002 BECMG 21020G30KT
  • 221030Z AUTO 19020KT CAVOK 12/07 Q1003 BECMG 21020G30KT
  • 221000Z AUTO 20021G31KT CAVOK 12/07 Q1003 NOSIG

TAF TAF LFRC
Valide du 22 à 12h jusqu'au 22 à 21h UTC


221100Z 2212/2221 21020G30KT CAVOK
BECMG 2215/2218 20025G40KT
BECMG 2218/2221 20030G45KT
TEMPO 2218/2221 5000 RA
Pas de NOTAMs connus pour ce terrain.
1 SIGMET publié pour la FIR Brest (LFRR) :
 
Turbulence forte
LFRR SIGMET 2 VALID 221000/221300 LFPW
LFRR BREST FIR/UIR SEV TURB FCST WI N4500 W00730 - N4500 W00800 - N4900 W00800 - N5000 W00215 - N4945 W00145 - N4815 W00430 SFC/FL080 MOV NE 20KT INTSF=



MET'MAP, la Météo Aéronautique d'un coup d'oeil ! - Copyright ORBIFLY Décembre 2007 - Disclaimer

ORBIFLY MET'MAP TEAM :

Programmation & Développement : Alexandra Zaïnal
Conception & Développement : Baudouin d'Aumeries
Co-Programmation & Développement : Marc-Olivier Méhu
Soutien technique & logistique : Manuel Goepfert

Contact : metmap@orbifly.com




SOURCES & CREDITS :

   NOAA